Latest Weather Observations for Horsley Park

IDN60901

Issued at 11:05 pm EDT Thursday 30 October 2014 (issued every 10 minutes, with the page automatically refreshed every 10 minutes)

About weather observations | Map of Sydney area stations | Latest observations for Sydney area | Other Formats
Station Details ID: 067119 Name: HORSLEY PARK EQUESTRIAN CENTRE AWS Lat: -33.85 Lon: 150.86 Height: 100.0 m
Data from the previous 72 hours. | See also: Recent months at Horsley Park
Date/Time
EDT
Tmp

°C
App
Tmp
°C
Dew
Point
°C
Rel
Hum
%
Delta-T

°C
Wind Press
QNH
hPa
Press
MSL
hPa
Rain
since
9 am
mm
Dir
 
Spd
km/h
Gust
km/h
Spd
kts
Gust
kts
30/11:00pm 17.1 17.2 10.0 63 3.8 SE 0 0 0 0 - - 0.0
30/10:30pm 18.3 18.3 9.9 58 4.5 CALM 0 4 0 2 - - 0.0
30/10:00pm 18.8 18.9 10.1 57 4.7 CALM 0 0 0 0 - - 0.0
30/09:30pm 20.3 19.1 9.5 50 5.8 SE 6 7 3 4 - - 0.0
30/09:00pm 21.4 19.7 9.9 48 6.2 ESE 9 15 5 8 - - 0.0
30/08:30pm 21.9 20.6 9.8 46 6.6 SE 7 15 4 8 - - 0.0
30/08:00pm 23.4 21.4 10.1 43 7.3 SE 11 17 6 9 - - 0.0
30/07:30pm 24.7 22.9 9.4 38 8.4 ESE 9 15 5 8 - - 0.0
30/07:00pm 28.3 27.1 4.6 22 12.2 CALM 0 2 0 1 - - 0.0
30/06:30pm 30.4 29.0 3.4 18 13.8 CALM 0 0 0 0 - - 0.0
30/06:00pm 30.4 29.0 3.4 18 13.8 N 0 0 0 0 - - 0.0
30/05:30pm 30.4 29.1 4.2 19 13.5 CALM 0 2 0 1 - - 0.0
30/05:00pm 30.5 29.5 5.7 21 13.1 CALM 0 2 0 1 - - 0.0
30/04:30pm 31.0 29.4 4.7 19 13.7 WNW 2 11 1 6 - - 0.0
30/04:00pm 30.6 29.5 5.1 20 13.4 CALM 0 7 0 4 - - 0.0
30/03:30pm 30.0 29.4 7.2 24 12.4 CALM 0 7 0 4 - - 0.0
30/03:00pm 29.4 29.1 8.5 27 11.5 CALM 0 7 0 4 - - 0.0
30/02:30pm 29.3 28.6 8.4 27 11.5 WNW 2 9 1 5 - - 0.0
30/02:00pm 28.5 26.7 7.1 26 11.5 NW 6 13 3 7 - - 0.0
30/01:30pm 28.0 25.8 7.8 28 10.9 WNW 9 20 5 11 - - 0.0
30/01:00pm 27.8 25.7 8.1 29 10.7 NW 9 19 5 10 - - 0.0
30/12:30pm 27.1 25.7 9.0 32 10.0 NW 6 17 3 9 - - 0.0
30/12:00pm 26.1 25.1 9.0 34 9.4 NW 4 11 2 6 - - 0.0
30/11:30am 25.9 26.0 10.1 37 8.8 CALM 0 7 0 4 - - 0.0
30/11:00am 24.6 24.9 12.2 46 7.1 N 2 9 1 5 - - 0.0
30/10:30am 23.4 24.2 13.8 54 5.6 N 2 7 1 4 - - 0.0
30/10:00am 21.9 22.7 14.8 64 4.2 N 4 9 2 5 - - 0.0
30/09:30am 20.1 20.7 14.2 69 3.4 NNW 4 9 2 5 - - 0.0
30/09:00am 18.9 19.9 14.4 75 2.6 W 2 7 1 4 - - 0.0
30/08:30am 17.5 17.9 14.8 84 1.6 NW 6 9 3 5 - - 0.0
30/08:00am 16.3 16.4 13.8 85 1.4 NW 6 9 3 5 - - 0.0
30/07:30am 15.6 16.2 14.3 92 0.7 W 4 6 2 3 - - 0.0
30/07:00am 13.8 14.8 13.3 97 0.3 CALM 0 2 0 1 - - 0.0
30/06:30am 13.1 13.9 12.5 96 0.3 CALM 0 0 0 0 - - 0.0
30/06:00am 12.8 13.5 12.2 96 0.3 CALM 0 0 0 0 - - 0.0
30/05:30am 13.2 14.0 12.6 96 0.3 CALM 0 0 0 0 - - 0.0
30/05:00am 13.0 13.7 12.2 95 0.4 CALM 0 0 0 0 - - 0.0
30/04:30am 13.0 13.7 12.2 95 0.4 CALM 0 0 0 0 - - 0.0
30/04:00am 13.7 14.7 13.1 96 0.3 CALM 0 0 0 0 - - 0.0
30/03:30am 13.5 14.4 12.9 96 0.3 CALM 0 0 0 0 - - 0.0
30/03:00am 13.2 13.9 12.3 94 0.5 CALM 0 0 0 0 - - 0.0
30/02:30am 13.5 14.3 12.6 94 0.5 CALM 0 0 0 0 - - 0.0
30/02:00am 13.6 14.4 12.7 94 0.5 CALM 0 0 0 0 - - 0.0
30/01:30am 13.9 14.8 12.8 93 0.6 CALM 0 0 0 0 - - 0.0
30/01:00am 14.0 14.8 12.7 92 0.7 CALM 0 0 0 0 - - 0.0
30/12:30am 14.3 15.2 12.9 91 0.8 CALM 0 0 0 0 - - 0.0
30/12:00am 14.7 15.6 12.9 89 1.0 NNE 0 0 0 0 - - 0.0
 
Date/Time
EDT
Tmp

°C
App
Tmp
°C
Dew
Point
°C
Rel
Hum
%
Delta-T

°C
Wind Press
QNH
hPa
Press
MSL
hPa
Rain
since
9 am
mm
Dir
 
Spd
km/h
Gust
km/h
Spd
kts
Gust
kts
29/11:30pm 15.4 16.2 12.7 84 1.5 CALM 0 0 0 0 - - 0.0
29/11:00pm 16.6 16.9 13.3 81 1.9 NE 4 6 2 3 - - 0.0
29/10:30pm 16.9 16.8 13.4 80 2.0 NE 6 7 3 4 - - 0.0
29/10:00pm 16.7 16.4 13.2 80 2.0 ENE 7 11 4 6 - - 0.0
29/09:30pm 17.1 16.8 13.4 79 2.1 ENE 7 11 4 6 - - 0.0
29/09:00pm 17.6 16.9 13.3 76 2.4 ENE 9 13 5 7 - - 0.0
29/08:30pm 17.8 16.8 13.3 75 2.5 ENE 11 19 6 10 - - 0.0
29/08:00pm 18.1 16.6 13.0 72 2.9 ENE 13 19 7 10 - - 0.0
29/07:30pm 18.5 17.0 13.1 71 3.1 E 13 19 7 10 - - 0.0
29/07:00pm 19.1 17.7 13.3 69 3.3 E 13 20 7 11 - - 0.0
29/06:30pm 19.9 18.0 13.1 65 3.9 E 15 24 8 13 - - 0.0
29/06:00pm 20.5 17.9 13.2 63 4.2 ESE 19 26 10 14 - - 0.0
29/05:30pm 21.3 18.6 13.5 61 4.5 ESE 20 33 11 18 - - 0.0
29/05:00pm 21.7 18.7 13.6 60 4.7 ESE 22 32 12 17 - - 0.0
29/04:30pm 22.0 19.0 13.6 59 4.9 E 22 33 12 18 - - 0.0
29/04:00pm 22.6 19.6 13.7 57 5.2 E 22 33 12 18 - - 0.0
29/03:30pm 23.4 20.8 13.3 53 5.9 E 19 26 10 14 - - 0.0
29/03:00pm 23.5 20.1 12.5 50 6.3 ESE 22 30 12 16 - - 0.0
29/02:30pm 24.1 21.1 12.1 47 6.9 E 19 28 10 15 - - 0.0
29/02:00pm 24.4 21.1 11.7 45 7.2 ESE 20 30 11 16 - - 0.0
29/01:30pm 24.7 22.1 7.8 34 9.0 NNE 11 19 6 10 - - 0.0
29/11:00am 23.1 21.2 6.8 35 8.4 SE 6 11 3 6 - - 0.0
29/10:30am 21.5 19.0 6.6 38 7.6 S 9 17 5 9 - - 0.0
29/10:00am 21.5 18.8 7.3 40 7.3 SSW 11 22 6 12 - - 0.0
29/09:30am 21.0 18.9 8.3 44 6.7 SE 9 20 5 11 - - 0.0
29/09:00am 20.7 18.2 8.0 44 6.6 SSW 11 20 6 11 - - 0.0
29/08:30am 19.9 17.6 7.6 45 6.3 WSW 9 15 5 8 - - 0.0
29/08:00am 18.9 16.6 7.4 47 5.9 W 9 13 5 7 - - 0.0
29/07:30am 17.1 15.3 7.2 52 5.0 NW 6 9 3 5 - - 0.0
29/07:00am 15.9 14.1 7.1 56 4.4 WNW 6 9 3 5 - - 0.0
29/06:30am 13.8 12.0 7.1 64 3.3 W 6 7 3 4 - - 0.0
29/06:00am 12.8 12.0 6.6 66 3.0 CALM 0 4 0 2 - - 0.0
29/05:30am 11.6 10.8 6.5 71 2.4 CALM 0 0 0 0 - - 0.0
29/05:00am 11.8 11.0 6.3 69 2.6 CALM 0 0 0 0 - - 0.0
29/04:30am 12.9 12.1 6.3 64 3.2 CALM 0 0 0 0 - - 0.0
29/04:00am 13.6 12.7 6.0 60 3.6 CALM 0 0 0 0 - - 0.0
29/03:30am 15.8 14.4 5.4 50 5.0 SW 2 6 1 3 - - 0.0
29/03:00am 17.1 14.8 5.7 47 5.5 WSW 7 13 4 7 - - 0.0
29/02:30am 16.5 14.3 6.1 50 5.1 SW 7 9 4 5 - - 0.0
29/02:00am 15.7 13.4 5.0 49 5.1 SW 6 7 3 4 - - 0.0
29/01:30am 17.4 15.2 5.4 45 5.8 SW 6 11 3 6 - - 0.0
29/01:00am 17.9 15.4 4.8 42 6.3 SW 7 11 4 6 - - 0.0
29/12:30am 19.1 15.8 4.5 38 7.0 SW 11 20 6 11 - - 0.0
29/12:00am 17.6 14.7 4.9 43 6.1 SW 9 15 5 8 - - 0.0
 
Date/Time
EDT
Tmp

°C
App
Tmp
°C
Dew
Point
°C
Rel
Hum
%
Delta-T

°C
Wind Press
QNH
hPa
Press
MSL
hPa
Rain
since
9 am
mm
Dir
 
Spd
km/h
Gust
km/h
Spd
kts
Gust
kts
28/11:30pm 16.0 14.7 4.1 45 5.6 CALM 0 0 0 0 - - 0.0
28/11:00pm 17.0 15.6 3.7 41 6.2 CALM 0 0 0 0 - - 0.0
28/10:30pm 18.8 16.5 3.0 35 7.4 WSW 4 7 2 4 - - 0.0
28/10:00pm 19.0 16.5 3.6 36 7.3 WNW 6 11 3 6 - - 0.0
28/09:30pm 19.8 17.6 3.5 34 7.7 WNW 4 17 2 9 - - 0.0
28/09:00pm 20.5 17.8 2.8 31 8.3 WSW 6 11 3 6 - - 0.0
28/08:30pm 20.9 17.7 3.2 31 8.4 WNW 9 15 5 8 - - 0.0
28/08:00pm 21.3 18.1 3.0 30 8.7 W 9 15 5 8 - - 0.0
28/07:30pm 22.5 18.0 2.1 26 9.6 W 15 22 8 12 - - 0.0
28/07:00pm 23.3 19.2 2.2 25 10.0 W 13 22 7 12 - - 0.0
28/06:30pm 24.8 19.9 1.7 22 11.0 W 17 33 9 18 - - 0.0
28/06:00pm 25.5 20.2 1.6 21 11.4 W 19 33 10 18 - - 0.0
28/05:30pm 26.5 21.3 2.4 21 11.8 W 19 28 10 15 - - 0.0
28/05:00pm 26.7 21.4 1.9 20 12.0 W 19 32 10 17 - - 0.0
28/04:30pm 27.2 22.0 2.3 20 12.2 W 19 30 10 16 - - 0.0
28/04:00pm 27.4 22.2 2.5 20 12.3 W 19 33 10 18 - - 0.0
28/03:30pm 26.9 22.4 2.1 20 12.1 WNW 15 32 8 17 - - 0.0
28/03:00pm 26.7 21.3 1.2 19 12.2 WNW 19 33 10 18 - - 0.0
28/02:30pm 26.4 20.4 0.9 19 12.1 W 22 30 12 16 - - 0.0
28/02:00pm 26.5 21.2 1.7 20 12.0 WNW 19 28 10 15 - - 0.0
28/01:30pm 26.1 20.2 1.4 20 11.8 W 22 32 12 17 - - 0.0
28/01:00pm 23.8 20.0 2.0 24 10.4 WNW 11 20 6 11 - - 0.0
28/12:30pm 22.9 19.3 2.9 27 9.6 WNW 11 19 6 10 - - 0.0
28/12:00pm 22.7 18.8 1.1 24 10.0 W 11 24 6 13 - - 0.0
28/11:30am 22.6 19.8 3.2 28 9.4 WNW 7 17 4 9 - - 0.0
28/11:00am 22.4 19.3 3.5 29 9.2 WNW 9 15 5 8 - - 0.0
28/10:30am 21.8 18.7 3.5 30 8.8 WNW 9 15 5 8 - - 0.0
28/10:00am 21.2 17.9 4.3 33 8.2 W 11 19 6 10 - - 0.0
28/09:30am 20.5 17.0 3.3 32 8.2 W 11 17 6 9 - - 0.0
28/09:00am 19.7 17.1 6.1 41 6.8 WNW 9 13 5 7 - - 0.0
28/08:30am 18.2 16.2 6.4 46 5.9 WNW 6 9 3 5 - - 0.0
28/08:00am 16.4 14.5 6.8 53 4.8 NNW 6 9 3 5 - - 0.0
28/07:30am 15.2 14.1 8.4 64 3.5 NW 4 7 2 4 - - 0.0
28/07:00am 14.4 13.7 10.0 75 2.3 NNW 4 9 2 5 - - 0.0
28/06:30am 12.5 11.6 9.1 80 1.7 NW 4 6 2 3 - - 0.0
28/06:00am 12.1 10.9 8.0 76 2.0 NNW 4 6 2 3 - - 0.0
28/05:30am 11.4 9.8 4.4 62 3.2 N 2 7 1 4 - - 0.0
28/05:00am 12.3 10.7 2.7 52 4.2 CALM 0 4 0 2 - - 0.0
28/04:30am 13.1 11.2 2.6 49 4.6 N 2 6 1 3 - - 0.0
28/04:00am 16.2 13.2 0.7 35 6.8 SW 6 9 3 5 - - 0.0
28/03:30am 15.7 13.1 0.7 36 6.5 SSW 4 7 2 4 - - 0.0
28/03:00am 17.2 14.0 0.8 33 7.2 SW 7 9 4 5 - - 0.0
28/02:30am 17.9 14.7 1.0 32 7.5 SW 7 11 4 6 - - 0.0
28/02:00am 18.3 14.7 0.9 31 7.8 WSW 9 15 5 8 - - 0.0
28/01:30am 18.7 14.0 1.2 31 7.9 SW 15 28 8 15 - - 0.0
28/01:00am 18.8 14.2 1.8 32 7.7 SW 15 26 8 14 - - 0.0
28/12:30am 18.9 14.7 1.9 32 7.8 SSW 13 24 7 13 - - 0.0
28/12:00am 18.8 15.1 2.6 34 7.5 SSW 11 17 6 9 - - 0.0
 
Date/Time
EDT
Tmp

°C
App
Tmp
°C
Dew
Point
°C
Rel
Hum
%
Delta-T

°C
Wind Press
QNH
hPa
Press
MSL
hPa
Rain
since
9 am
mm
Dir
 
Spd
km/h
Gust
km/h
Spd
kts
Gust
kts
27/11:30pm 19.5 16.2 2.4 32 7.9 S 9 17 5 9 - - 0.0

Latest Capital City Observations: Canberra | Sydney | Melbourne | Brisbane | Adelaide | Perth | Hobart | Darwin

Other Formats:

Comma delimited format used in spreadsheet applications
http://www.bom.gov.au/fwo/IDN60901/IDN60901.94760.axf

JavaScript Object Notation format (JSON) in row-major order
http://www.bom.gov.au/fwo/IDN60901/IDN60901.94760.json